sensor_id;sensor_type;location;lat;lon;timestamp;pressure;altitude;pressure_sealevel;temperature;humidity
10688;BME280;5392;42.688;23.298;2022-07-29T00:02:25;57338.28;;;-144.48;100.00
10688;BME280;5392;42.688;23.298;2022-07-29T00:04:53;57352.91;;;-144.48;100.00
10688;BME280;5392;42.688;23.298;2022-07-29T00:07:20;57380.03;;;-144.48;100.00
10688;BME280;5392;42.688;23.298;2022-07-29T00:09:46;57344.53;;;-144.48;100.00
10688;BME280;5392;42.688;23.298;2022-07-29T00:12:19;57354.97;;;-144.48;100.00
10688;BME280;5392;42.688;23.298;2022-07-29T00:14:52;57348.72;;;-144.48;100.00
10688;BME280;5392;42.688;23.298;2022-07-29T00:17:19;57336.19;;;-144.48;100.00
10688;BME280;5392;42.688;23.298;2022-07-29T00:19:45;57371.69;;;-144.48;100.00
10688;BME280;5392;42.688;23.298;2022-07-29T00:22:12;57357.06;;;-144.48;100.00
10688;BME280;5392;42.688;23.298;2022-07-29T00:24:39;57338.28;;;-144.48;100.00
10688;BME280;5392;42.688;23.298;2022-07-29T00:27:05;57346.63;;;-144.48;100.00
10688;BME280;5392;42.688;23.298;2022-07-29T00:29:32;57371.69;;;-144.48;100.00
10688;BME280;5392;42.688;23.298;2022-07-29T00:32:01;57325.75;;;-144.48;100.00
10688;BME280;5392;42.688;23.298;2022-07-29T00:34:28;57325.75;;;-144.48;100.00
10688;BME280;5392;42.688;23.298;2022-07-29T00:37:13;57348.72;;;-144.48;100.00
10688;BME280;5392;42.688;23.298;2022-07-29T00:39:40;57342.47;;;-144.48;100.00
10688;BME280;5392;42.688;23.298;2022-07-29T00:42:07;57342.47;;;-144.48;100.00
10688;BME280;5392;42.688;23.298;2022-07-29T00:44:38;57342.47;;;-144.48;100.00
10688;BME280;5392;42.688;23.298;2022-07-29T00:47:05;57373.75;;;-144.48;100.00
10688;BME280;5392;42.688;23.298;2022-07-29T00:49:33;57344.53;;;-144.48;100.00
10688;BME280;5392;42.688;23.298;2022-07-29T00:52:02;57296.53;;;-144.48;100.00
10688;BME280;5392;42.688;23.298;2022-07-29T00:54:29;57334.09;;;-144.48;100.00
10688;BME280;5392;42.688;23.298;2022-07-29T00:57:00;57354.97;;;-144.48;100.00
10688;BME280;5392;42.688;23.298;2022-07-29T00:59:27;57384.19;;;-144.48;100.00
10688;BME280;5392;42.688;23.298;2022-07-29T01:02:01;57375.84;;;-144.48;100.00
10688;BME280;5392;42.688;23.298;2022-07-29T01:04:29;57338.28;;;-144.48;100.00
10688;BME280;5392;42.688;23.298;2022-07-29T01:06:57;57363.31;;;-144.48;100.00
10688;BME280;5392;42.688;23.298;2022-07-29T01:09:26;57405.06;;;-144.48;100.00
10688;BME280;5392;42.688;23.298;2022-07-29T01:12:18;57340.38;;;-144.48;100.00
10688;BME280;5392;42.688;23.298;2022-07-29T01:17:42;57363.31;;;-144.48;100.00
10688;BME280;5392;42.688;23.298;2022-07-29T01:23:30;57377.94;;;-144.48;100.00
10688;BME280;5392;42.688;23.298;2022-07-29T01:29:05;57354.97;;;-144.48;100.00
10688;BME280;5392;42.688;23.298;2022-07-29T01:32:01;57380.03;;;-144.48;100.00
10688;BME280;5392;42.688;23.298;2022-07-29T01:37:47;57367.50;;;-144.48;100.00
10688;BME280;5392;42.688;23.298;2022-07-29T01:40:29;57388.38;;;-144.48;100.00
10688;BME280;5392;42.688;23.298;2022-07-29T01:42:59;57388.38;;;-144.48;100.00
10688;BME280;5392;42.688;23.298;2022-07-29T01:45:41;57388.38;;;-144.48;100.00
10688;BME280;5392;42.688;23.298;2022-07-29T01:48:15;57390.47;;;-144.48;100.00
10688;BME280;5392;42.688;23.298;2022-07-29T01:50:58;57371.69;;;-144.48;100.00
10688;BME280;5392;42.688;23.298;2022-07-29T01:53:36;57369.59;;;-144.48;100.00
10688;BME280;5392;42.688;23.298;2022-07-29T01:56:06;57302.81;;;-144.48;100.00
10688;BME280;5392;42.688;23.298;2022-07-29T01:58:37;57396.72;;;-144.48;100.00
10688;BME280;5392;42.688;23.298;2022-07-29T02:01:06;57382.13;;;-144.48;100.00
10688;BME280;5392;42.688;23.298;2022-07-29T02:03:36;57365.41;;;-144.48;100.00
10688;BME280;5392;42.688;23.298;2022-07-29T02:06:06;57419.69;;;-144.48;100.00
10688;BME280;5392;42.688;23.298;2022-07-29T02:08:34;57365.41;;;-144.48;100.00
10688;BME280;5392;42.688;23.298;2022-07-29T02:11:04;57363.31;;;-144.48;100.00
10688;BME280;5392;42.688;23.298;2022-07-29T02:13:32;57354.97;;;-144.48;100.00
10688;BME280;5392;42.688;23.298;2022-07-29T02:16:02;57394.63;;;-144.48;100.00
10688;BME280;5392;42.688;23.298;2022-07-29T02:18:33;57338.28;;;-144.48;100.00
10688;BME280;5392;42.688;23.298;2022-07-29T02:21:03;57352.91;;;-144.48;100.00
10688;BME280;5392;42.688;23.298;2022-07-29T02:23:31;57405.06;;;-144.48;100.00
10688;BME280;5392;42.688;23.298;2022-07-29T02:26:18;57354.97;;;-144.48;100.00
10688;BME280;5392;42.688;23.298;2022-07-29T02:28:47;57369.59;;;-144.48;100.00
10688;BME280;5392;42.688;23.298;2022-07-29T02:31:16;57350.81;;;-144.48;100.00
10688;BME280;5392;42.688;23.298;2022-07-29T02:33:45;57352.91;;;-144.48;100.00
10688;BME280;5392;42.688;23.298;2022-07-29T02:36:13;57369.59;;;-144.48;100.00
10688;BME280;5392;42.688;23.298;2022-07-29T02:38:43;57361.25;;;-144.48;100.00
10688;BME280;5392;42.688;23.298;2022-07-29T02:41:20;57367.50;;;-144.48;100.00
10688;BME280;5392;42.688;23.298;2022-07-29T02:43:53;57400.91;;;-144.48;100.00
10688;BME280;5392;42.688;23.298;2022-07-29T02:46:27;57354.97;;;-144.48;100.00
10688;BME280;5392;42.688;23.298;2022-07-29T02:49:02;57350.81;;;-144.48;100.00
10688;BME280;5392;42.688;23.298;2022-07-29T02:51:40;57325.75;;;-144.48;100.00
10688;BME280;5392;42.688;23.298;2022-07-29T02:54:11;57384.19;;;-144.48;100.00
10688;BME280;5392;42.688;23.298;2022-07-29T02:56:44;57344.53;;;-144.48;100.00
10688;BME280;5392;42.688;23.298;2022-07-29T02:59:13;57344.53;;;-144.48;100.00
10688;BME280;5392;42.688;23.298;2022-07-29T03:01:42;57371.69;;;-144.48;100.00
10688;BME280;5392;42.688;23.298;2022-07-29T03:04:11;57384.19;;;-144.48;100.00
10688;BME280;5392;42.688;23.298;2022-07-29T03:06:40;57380.03;;;-144.48;100.00
10688;BME280;5392;42.688;23.298;2022-07-29T03:09:10;57415.50;;;-144.48;100.00
10688;BME280;5392;42.688;23.298;2022-07-29T03:11:40;57354.97;;;-144.48;100.00
10688;BME280;5392;42.688;23.298;2022-07-29T03:14:19;57371.69;;;-144.48;100.00
10688;BME280;5392;42.688;23.298;2022-07-29T03:16:47;57386.28;;;-144.48;100.00
10688;BME280;5392;42.688;23.298;2022-07-29T03:19:14;57384.19;;;-144.48;100.00
10688;BME280;5392;42.688;23.298;2022-07-29T03:21:41;57382.13;;;-144.48;100.00
10688;BME280;5392;42.688;23.298;2022-07-29T03:24:08;57371.69;;;-144.48;100.00
10688;BME280;5392;42.688;23.298;2022-07-29T03:26:36;57373.75;;;-144.48;100.00
10688;BME280;5392;42.688;23.298;2022-07-29T03:29:03;57359.16;;;-144.48;100.00
10688;BME280;5392;42.688;23.298;2022-07-29T03:31:30;57352.91;;;-144.48;100.00
10688;BME280;5392;42.688;23.298;2022-07-29T03:33:59;57417.59;;;-144.48;100.00
10688;BME280;5392;42.688;23.298;2022-07-29T03:36:25;57396.72;;;-144.48;100.00
10688;BME280;5392;42.688;23.298;2022-07-29T03:38:52;57363.31;;;-144.48;100.00
10688;BME280;5392;42.688;23.298;2022-07-29T03:41:20;57371.69;;;-144.48;100.00
10688;BME280;5392;42.688;23.298;2022-07-29T03:43:49;57380.03;;;-144.48;100.00
10688;BME280;5392;42.688;23.298;2022-07-29T03:46:20;57369.59;;;-144.48;100.00
10688;BME280;5392;42.688;23.298;2022-07-29T03:48:50;57363.31;;;-144.48;100.00
10688;BME280;5392;42.688;23.298;2022-07-29T03:51:19;57377.94;;;-144.48;100.00
10688;BME280;5392;42.688;23.298;2022-07-29T03:54:01;57398.81;;;-144.48;100.00
10688;BME280;5392;42.688;23.298;2022-07-29T03:56:38;57354.97;;;-144.48;100.00
10688;BME280;5392;42.688;23.298;2022-07-29T03:59:06;57386.28;;;-144.48;100.00
10688;BME280;5392;42.688;23.298;2022-07-29T04:01:34;57338.28;;;-144.48;100.00
10688;BME280;5392;42.688;23.298;2022-07-29T04:04:02;57354.97;;;-144.48;100.00
10688;BME280;5392;42.688;23.298;2022-07-29T04:06:40;57332.03;;;-144.48;93.36
10688;BME280;5392;42.688;23.298;2022-07-29T04:09:07;57279.84;;;-144.48;86.56
10688;BME280;5392;42.688;23.298;2022-07-29T04:11:36;57344.53;;;-144.48;83.09
10688;BME280;5392;42.688;23.298;2022-07-29T04:14:24;57317.41;;;-144.48;77.18
10688;BME280;5392;42.688;23.298;2022-07-29T04:16:51;57300.72;;;-144.48;71.50
10688;BME280;5392;42.688;23.298;2022-07-29T04:19:19;57296.53;;;-144.48;66.10
10688;BME280;5392;42.688;23.298;2022-07-29T04:21:46;57261.06;;;-144.48;62.46
10688;BME280;5392;42.688;23.298;2022-07-29T04:24:12;57340.38;;;-144.48;60.91
10688;BME280;5392;42.688;23.298;2022-07-29T04:26:40;57294.44;;;-144.48;59.47
10688;BME280;5392;42.688;23.298;2022-07-29T04:29:06;57329.94;;;-144.48;56.44
10688;BME280;5392;42.688;23.298;2022-07-29T04:31:33;57273.56;;;-144.48;50.42
10688;BME280;5392;42.688;23.298;2022-07-29T04:34:00;57300.72;;;-144.48;46.02
10688;BME280;5392;42.688;23.298;2022-07-29T04:36:27;57236.00;;;-144.48;43.29
10688;BME280;5392;42.688;23.298;2022-07-29T04:38:55;57269.41;;;-144.48;40.37
10688;BME280;5392;42.688;23.298;2022-07-29T04:41:22;57244.34;;;-144.48;40.28
10688;BME280;5392;42.688;23.298;2022-07-29T04:43:58;57242.28;;;-144.48;39.42
10688;BME280;5392;42.688;23.298;2022-07-29T04:46:27;57246.44;;;-144.48;38.23
10688;BME280;5392;42.688;23.298;2022-07-29T04:48:54;57217.22;;;-144.48;37.91
10688;BME280;5392;42.688;23.298;2022-07-29T04:51:21;57244.34;;;-144.48;36.88
10688;BME280;5392;42.688;23.298;2022-07-29T04:53:47;57267.31;;;-144.48;38.40
10688;BME280;5392;42.688;23.298;2022-07-29T04:56:14;57284.00;;;-144.48;39.28
10688;BME280;5392;42.688;23.298;2022-07-29T04:58:41;57202.63;;;-144.48;37.49
10688;BME280;5392;42.688;23.298;2022-07-29T05:01:08;57242.28;;;-144.48;36.63
10688;BME280;5392;42.688;23.298;2022-07-29T05:03:34;57223.50;;;-144.48;36.17
10688;BME280;5392;42.688;23.298;2022-07-29T05:06:01;57238.09;;;-144.48;35.49
10688;BME280;5392;42.688;23.298;2022-07-29T05:08:28;57233.91;;;-144.48;35.76
10688;BME280;5392;42.688;23.298;2022-07-29T05:10:55;57233.91;;;-144.48;33.81
10688;BME280;5392;42.688;23.298;2022-07-29T05:13:21;57242.28;;;-144.48;33.05
10688;BME280;5392;42.688;23.298;2022-07-29T05:15:48;57194.25;;;-144.48;32.90
10688;BME280;5392;42.688;23.298;2022-07-29T05:18:15;57261.06;;;-144.48;33.82
10688;BME280;5392;42.688;23.298;2022-07-29T05:20:42;57250.63;;;-144.48;38.01
10688;BME280;5392;42.688;23.298;2022-07-29T05:23:08;57325.75;;;-144.48;40.68
10688;BME280;5392;42.688;23.298;2022-07-29T05:25:35;57292.38;;;-144.48;40.81
10688;BME280;5392;42.688;23.298;2022-07-29T05:28:11;57292.38;;;-144.48;40.02
10688;BME280;5392;42.688;23.298;2022-07-29T05:30:38;57292.38;;;-144.48;40.48
10688;BME280;5392;42.688;23.298;2022-07-29T05:33:04;57327.84;;;-144.48;41.33
10688;BME280;5392;42.688;23.298;2022-07-29T05:35:31;57273.56;;;-144.48;40.32
10688;BME280;5392;42.688;23.298;2022-07-29T05:37:58;57275.66;;;-144.48;38.98
10688;BME280;5392;42.688;23.298;2022-07-29T05:40:24;57244.34;;;-144.48;36.40
10688;BME280;5392;42.688;23.298;2022-07-29T05:42:51;57298.63;;;-144.48;36.50
10688;BME280;5392;42.688;23.298;2022-07-29T05:45:18;57271.50;;;-144.48;38.78
10688;BME280;5392;42.688;23.298;2022-07-29T05:47:45;57279.84;;;-144.48;37.94
10688;BME280;5392;42.688;23.298;2022-07-29T05:50:12;57288.19;;;-144.48;35.80
10688;BME280;5392;42.688;23.298;2022-07-29T05:52:39;57271.50;;;-144.48;34.91
10688;BME280;5392;42.688;23.298;2022-07-29T05:55:06;57221.41;;;-144.48;33.66
10688;BME280;5392;42.688;23.298;2022-07-29T05:57:33;57242.28;;;-144.48;34.08
10688;BME280;5392;42.688;23.298;2022-07-29T05:59:59;57256.88;;;-144.48;33.55
10688;BME280;5392;42.688;23.298;2022-07-29T06:02:26;57223.50;;;-144.48;33.02
10688;BME280;5392;42.688;23.298;2022-07-29T06:04:53;57227.66;;;-144.48;32.85
10688;BME280;5392;42.688;23.298;2022-07-29T06:07:20;57261.06;;;-144.48;34.60
10688;BME280;5392;42.688;23.298;2022-07-29T06:09:47;57258.97;;;-144.48;34.85
10688;BME280;5392;42.688;23.298;2022-07-29T06:12:13;57273.56;;;-144.48;34.74
10688;BME280;5392;42.688;23.298;2022-07-29T06:14:40;57252.72;;;-144.48;33.55
10688;BME280;5392;42.688;23.298;2022-07-29T06:17:07;57225.56;;;-144.48;33.21
10688;BME280;5392;42.688;23.298;2022-07-29T06:19:34;57286.09;;;-144.48;34.70
10688;BME280;5392;42.688;23.298;2022-07-29T06:22:03;57277.75;;;-144.48;34.58
10688;BME280;5392;42.688;23.298;2022-07-29T06:24:30;57223.50;;;-144.48;34.08
10688;BME280;5392;42.688;23.298;2022-07-29T06:26:57;57256.88;;;-144.48;34.60
10688;BME280;5392;42.688;23.298;2022-07-29T06:29:24;57277.75;;;-144.48;34.88
10688;BME280;5392;42.688;23.298;2022-07-29T06:31:50;57288.19;;;-144.48;35.08
10688;BME280;5392;42.688;23.298;2022-07-29T06:34:17;57275.66;;;-144.48;35.37
10688;BME280;5392;42.688;23.298;2022-07-29T06:36:46;57273.56;;;-144.48;36.42
10688;BME280;5392;42.688;23.298;2022-07-29T06:39:14;57300.72;;;-144.48;38.33
10688;BME280;5392;42.688;23.298;2022-07-29T06:41:40;57296.53;;;-144.48;35.83
10688;BME280;5392;42.688;23.298;2022-07-29T06:44:07;57281.94;;;-144.48;35.41
10688;BME280;5392;42.688;23.298;2022-07-29T06:46:34;57277.75;;;-144.48;35.50
10688;BME280;5392;42.688;23.298;2022-07-29T06:49:01;57284.00;;;-144.48;35.19
10688;BME280;5392;42.688;23.298;2022-07-29T06:51:28;57265.22;;;-144.48;34.93
10688;BME280;5392;42.688;23.298;2022-07-29T06:53:55;57265.22;;;-144.48;34.43
10688;BME280;5392;42.688;23.298;2022-07-29T06:56:43;57269.41;;;-144.48;34.25
10688;BME280;5392;42.688;23.298;2022-07-29T06:59:11;57281.94;;;-144.48;34.41
10688;BME280;5392;42.688;23.298;2022-07-29T07:01:40;57321.59;;;-144.48;34.36
10688;BME280;5392;42.688;23.298;2022-07-29T07:04:09;57317.41;;;-144.48;35.64
10688;BME280;5392;42.688;23.298;2022-07-29T07:06:37;57342.47;;;-144.48;36.21
10688;BME280;5392;42.688;23.298;2022-07-29T07:09:04;57265.22;;;-144.48;36.42
10688;BME280;5392;42.688;23.298;2022-07-29T07:11:31;57294.44;;;-144.48;34.84
10688;BME280;5392;42.688;23.298;2022-07-29T07:13:58;57267.31;;;-144.48;34.74
10688;BME280;5392;42.688;23.298;2022-07-29T07:16:29;57317.41;;;-144.48;36.22
10688;BME280;5392;42.688;23.298;2022-07-29T07:18:57;57292.38;;;-144.48;36.94
10688;BME280;5392;42.688;23.298;2022-07-29T07:21:24;57317.41;;;-144.48;36.84
10688;BME280;5392;42.688;23.298;2022-07-29T07:23:50;57286.09;;;-144.48;35.46
10688;BME280;5392;42.688;23.298;2022-07-29T07:26:17;57271.50;;;-144.48;34.33
10688;BME280;5392;42.688;23.298;2022-07-29T07:28:44;57311.16;;;-144.48;36.66
10688;BME280;5392;42.688;23.298;2022-07-29T07:31:11;57357.06;;;-144.48;37.14
10688;BME280;5392;42.688;23.298;2022-07-29T07:33:38;57317.41;;;-144.48;40.14
10688;BME280;5392;42.688;23.298;2022-07-29T07:36:05;57306.97;;;-144.48;39.07
10688;BME280;5392;42.688;23.298;2022-07-29T07:38:31;57317.41;;;-144.48;38.09
10688;BME280;5392;42.688;23.298;2022-07-29T07:40:58;57284.00;;;-144.48;37.00
10688;BME280;5392;42.688;23.298;2022-07-29T07:43:25;57246.44;;;-144.48;35.04
10688;BME280;5392;42.688;23.298;2022-07-29T07:45:52;57233.91;;;-144.48;34.01
10688;BME280;5392;42.688;23.298;2022-07-29T07:48:19;57290.28;;;-144.48;32.93
10688;BME280;5392;42.688;23.298;2022-07-29T07:50:46;57258.97;;;-144.48;32.59
10688;BME280;5392;42.688;23.298;2022-07-29T07:53:13;57294.44;;;-144.48;33.79
10688;BME280;5392;42.688;23.298;2022-07-29T07:55:41;57284.00;;;-144.48;35.09
10688;BME280;5392;42.688;23.298;2022-07-29T07:58:28;57279.84;;;-144.48;34.42
10688;BME280;5392;42.688;23.298;2022-07-29T08:00:55;57273.56;;;-144.48;33.59
10688;BME280;5392;42.688;23.298;2022-07-29T08:03:24;57208.88;;;-144.48;34.46
10688;BME280;5392;42.688;23.298;2022-07-29T08:05:51;57284.00;;;-144.48;34.23
10688;BME280;5392;42.688;23.298;2022-07-29T08:08:18;57306.97;;;-144.48;35.02
10688;BME280;5392;42.688;23.298;2022-07-29T08:10:45;57258.97;;;-144.48;35.28
10688;BME280;5392;42.688;23.298;2022-07-29T08:13:30;57296.53;;;-144.48;36.48
10688;BME280;5392;42.688;23.298;2022-07-29T08:15:58;57340.38;;;-144.48;36.13
10688;BME280;5392;42.688;23.298;2022-07-29T08:18:28;57229.75;;;-144.48;35.39
10688;BME280;5392;42.688;23.298;2022-07-29T08:20:56;57269.41;;;-144.48;35.29
10688;BME280;5392;42.688;23.298;2022-07-29T08:23:22;57290.28;;;-144.48;36.33
10688;BME280;5392;42.688;23.298;2022-07-29T08:25:50;57242.28;;;-144.48;35.47
10688;BME280;5392;42.688;23.298;2022-07-29T08:28:35;57273.56;;;-144.48;35.34
10688;BME280;5392;42.688;23.298;2022-07-29T08:31:01;57279.84;;;-144.48;34.68
10688;BME280;5392;42.688;23.298;2022-07-29T08:33:28;57294.44;;;-144.48;35.29
10688;BME280;5392;42.688;23.298;2022-07-29T08:35:55;57269.41;;;-144.48;34.13
10688;BME280;5392;42.688;23.298;2022-07-29T08:38:21;57277.75;;;-144.48;34.04
10688;BME280;5392;42.688;23.298;2022-07-29T08:40:48;57294.44;;;-144.48;34.36
10688;BME280;5392;42.688;23.298;2022-07-29T08:43:15;57306.97;;;-144.48;34.53
10688;BME280;5392;42.688;23.298;2022-07-29T08:45:47;57242.28;;;-144.48;33.93
10688;BME280;5392;42.688;23.298;2022-07-29T08:48:15;57284.00;;;-144.48;32.91
10688;BME280;5392;42.688;23.298;2022-07-29T08:50:44;57294.44;;;-144.48;32.56
10688;BME280;5392;42.688;23.298;2022-07-29T08:53:14;57250.63;;;-144.48;32.62
10688;BME280;5392;42.688;23.298;2022-07-29T08:55:47;57279.84;;;-144.48;31.70
10688;BME280;5392;42.688;23.298;2022-07-29T08:58:15;57267.31;;;-144.48;31.66
10688;BME280;5392;42.688;23.298;2022-07-29T09:00:54;57256.88;;;-144.48;31.99
10688;BME280;5392;42.688;23.298;2022-07-29T09:03:29;57269.41;;;-144.48;31.58
10688;BME280;5392;42.688;23.298;2022-07-29T09:05:58;57267.31;;;-144.48;31.71
10688;BME280;5392;42.688;23.298;2022-07-29T09:08:25;57254.78;;;-144.48;31.75
10688;BME280;5392;42.688;23.298;2022-07-29T09:10:52;57240.19;;;-144.48;32.69
10688;BME280;5392;42.688;23.298;2022-07-29T09:13:19;57250.63;;;-144.48;31.84
10688;BME280;5392;42.688;23.298;2022-07-29T09:15:46;57275.66;;;-144.48;31.97
10688;BME280;5392;42.688;23.298;2022-07-29T09:18:39;57248.53;;;-144.48;31.46
10688;BME280;5392;42.688;23.298;2022-07-29T09:21:08;57294.44;;;-144.48;31.80
10688;BME280;5392;42.688;23.298;2022-07-29T09:24:13;57288.19;;;-144.48;31.95
10688;BME280;5392;42.688;23.298;2022-07-29T09:26:44;57279.84;;;-144.48;32.18
10688;BME280;5392;42.688;23.298;2022-07-29T09:31:48;57271.50;;;-144.48;32.67
10688;BME280;5392;42.688;23.298;2022-07-29T09:34:21;57269.41;;;-144.48;33.15
10688;BME280;5392;42.688;23.298;2022-07-29T09:36:50;57284.00;;;-144.48;33.42
10688;BME280;5392;42.688;23.298;2022-07-29T09:41:58;57248.53;;;-144.48;32.23
10688;BME280;5392;42.688;23.298;2022-07-29T09:44:26;57246.44;;;-144.48;32.12
10688;BME280;5392;42.688;23.298;2022-07-29T09:47:01;57254.78;;;-144.48;31.83
10688;BME280;5392;42.688;23.298;2022-07-29T09:49:57;57267.31;;;-144.48;31.21
10688;BME280;5392;42.688;23.298;2022-07-29T09:52:27;57261.06;;;-144.48;32.27
10688;BME280;5392;42.688;23.298;2022-07-29T09:55:14;57273.56;;;-144.48;32.55
10688;BME280;5392;42.688;23.298;2022-07-29T09:57:46;57263.16;;;-144.48;33.14
10688;BME280;5392;42.688;23.298;2022-07-29T10:00:18;57275.66;;;-144.48;32.24
10688;BME280;5392;42.688;23.298;2022-07-29T10:02:46;57242.28;;;-144.48;31.85
10688;BME280;5392;42.688;23.298;2022-07-29T10:05:24;57250.63;;;-144.48;31.85
10688;BME280;5392;42.688;23.298;2022-07-29T10:07:55;57300.72;;;-144.48;31.93
10688;BME280;5392;42.688;23.298;2022-07-29T10:10:24;57275.66;;;-144.48;31.63
10688;BME280;5392;42.688;23.298;2022-07-29T10:12:53;57281.94;;;-144.48;32.10
10688;BME280;5392;42.688;23.298;2022-07-29T10:15:22;57286.09;;;-144.48;32.49
10688;BME280;5392;42.688;23.298;2022-07-29T10:17:51;57279.84;;;-144.48;32.03
10688;BME280;5392;42.688;23.298;2022-07-29T10:20:20;57302.81;;;-144.48;31.84
10688;BME280;5392;42.688;23.298;2022-07-29T10:22:48;57269.41;;;-144.48;31.85
10688;BME280;5392;42.688;23.298;2022-07-29T10:25:19;57244.34;;;-144.48;32.41
10688;BME280;5392;42.688;23.298;2022-07-29T10:27:48;57296.53;;;-144.48;33.28
10688;BME280;5392;42.688;23.298;2022-07-29T10:30:16;57261.06;;;-144.48;33.43
10688;BME280;5392;42.688;23.298;2022-07-29T10:33:15;57286.09;;;-144.48;33.37
10688;BME280;5392;42.688;23.298;2022-07-29T10:44:22;57261.06;;;-144.48;31.65
10688;BME280;5392;42.688;23.298;2022-07-29T10:46:51;57258.97;;;-144.48;30.97
10688;BME280;5392;42.688;23.298;2022-07-29T10:49:24;57258.97;;;-144.48;30.78
10688;BME280;5392;42.688;23.298;2022-07-29T10:59:40;57258.97;;;-144.48;30.64
10688;BME280;5392;42.688;23.298;2022-07-29T11:05:16;57254.78;;;-144.48;31.25
10688;BME280;5392;42.688;23.298;2022-07-29T11:10:47;57294.44;;;-144.48;30.86
10688;BME280;5392;42.688;23.298;2022-07-29T11:16:09;57261.06;;;-144.48;31.44
10688;BME280;5392;42.688;23.298;2022-07-29T11:21:44;57254.78;;;-144.48;31.34
10688;BME280;5392;42.688;23.298;2022-07-29T11:24:33;57325.75;;;-144.48;31.61
10688;BME280;5392;42.688;23.298;2022-07-29T11:29:46;57290.28;;;-144.48;31.36
10688;BME280;5392;42.688;23.298;2022-07-29T11:32:15;57252.72;;;-144.48;31.68
10688;BME280;5392;42.688;23.298;2022-07-29T11:35:18;57269.41;;;-144.48;31.36
10688;BME280;5392;42.688;23.298;2022-07-29T11:41:22;57238.09;;;-144.48;30.61
10688;BME280;5392;42.688;23.298;2022-07-29T11:43:59;57298.63;;;-144.48;30.79
10688;BME280;5392;42.688;23.298;2022-07-29T11:46:48;57277.75;;;-144.48;31.07
10688;BME280;5392;42.688;23.298;2022-07-29T11:49:34;57263.16;;;-144.48;31.93
10688;BME280;5392;42.688;23.298;2022-07-29T11:52:02;57244.34;;;-144.48;31.60
10688;BME280;5392;42.688;23.298;2022-07-29T11:54:34;57231.84;;;-144.48;31.14
10688;BME280;5392;42.688;23.298;2022-07-29T11:57:21;57254.78;;;-144.48;30.80
10688;BME280;5392;42.688;23.298;2022-07-29T11:59:48;57275.66;;;-144.48;30.96
10688;BME280;5392;42.688;23.298;2022-07-29T12:02:16;57294.44;;;-144.48;31.02
10688;BME280;5392;42.688;23.298;2022-07-29T12:05:03;57246.44;;;-144.48;31.38
10688;BME280;5392;42.688;23.298;2022-07-29T12:07:37;57284.00;;;-144.48;31.11
10688;BME280;5392;42.688;23.298;2022-07-29T12:10:07;57246.44;;;-144.48;30.79
10688;BME280;5392;42.688;23.298;2022-07-29T12:12:51;57273.56;;;-144.48;30.98
10688;BME280;5392;42.688;23.298;2022-07-29T12:15:19;57242.28;;;-144.48;30.58
10688;BME280;5392;42.688;23.298;2022-07-29T12:18:14;57240.19;;;-144.48;30.32
10688;BME280;5392;42.688;23.298;2022-07-29T12:20:44;57258.97;;;-144.48;30.20
10688;BME280;5392;42.688;23.298;2022-07-29T12:23:11;57210.97;;;-144.48;29.65
10688;BME280;5392;42.688;23.298;2022-07-29T12:25:43;57240.19;;;-144.48;29.20
10688;BME280;5392;42.688;23.298;2022-07-29T12:28:15;57240.19;;;-144.48;30.01
10688;BME280;5392;42.688;23.298;2022-07-29T12:30:53;57227.66;;;-144.48;29.50
10688;BME280;5392;42.688;23.298;2022-07-29T12:33:22;57208.88;;;-144.48;29.05
10688;BME280;5392;42.688;23.298;2022-07-29T12:36:07;57248.53;;;-144.48;29.81
10688;BME280;5392;42.688;23.298;2022-07-29T12:38:43;57244.34;;;-144.48;29.96
10688;BME280;5392;42.688;23.298;2022-07-29T12:41:10;57213.06;;;-144.48;29.98
10688;BME280;5392;42.688;23.298;2022-07-29T12:43:52;57217.22;;;-144.48;29.89
10688;BME280;5392;42.688;23.298;2022-07-29T12:46:19;57217.22;;;-144.48;29.30
10688;BME280;5392;42.688;23.298;2022-07-29T12:48:50;57221.41;;;-144.48;29.20
10688;BME280;5392;42.688;23.298;2022-07-29T12:51:17;57194.25;;;-144.48;28.96
10688;BME280;5392;42.688;23.298;2022-07-29T12:54:03;57242.28;;;-144.48;28.95
10688;BME280;5392;42.688;23.298;2022-07-29T12:56:30;57206.78;;;-144.48;28.86
10688;BME280;5392;42.688;23.298;2022-07-29T12:59:17;57229.75;;;-144.48;28.78
10688;BME280;5392;42.688;23.298;2022-07-29T13:01:45;57227.66;;;-144.48;29.11
10688;BME280;5392;42.688;23.298;2022-07-29T13:04:28;57231.84;;;-144.48;29.12
10688;BME280;5392;42.688;23.298;2022-07-29T13:07:06;57254.78;;;-144.48;29.35
10688;BME280;5392;42.688;23.298;2022-07-29T13:09:43;57227.66;;;-144.48;29.01
10688;BME280;5392;42.688;23.298;2022-07-29T13:12:13;57242.28;;;-144.48;29.53
10688;BME280;5392;42.688;23.298;2022-07-29T13:14:49;57263.16;;;-144.48;29.06
10688;BME280;5392;42.688;23.298;2022-07-29T13:17:21;57213.06;;;-144.48;29.30
10688;BME280;5392;42.688;23.298;2022-07-29T13:20:09;57231.84;;;-144.48;29.46
10688;BME280;5392;42.688;23.298;2022-07-29T13:22:39;57258.97;;;-144.48;29.30
10688;BME280;5392;42.688;23.298;2022-07-29T13:25:06;57258.97;;;-144.48;29.11
10688;BME280;5392;42.688;23.298;2022-07-29T13:27:36;57244.34;;;-144.48;29.23
10688;BME280;5392;42.688;23.298;2022-07-29T13:30:06;57200.53;;;-144.48;29.16
10688;BME280;5392;42.688;23.298;2022-07-29T13:32:34;57229.75;;;-144.48;28.88
10688;BME280;5392;42.688;23.298;2022-07-29T13:35:05;57236.00;;;-144.48;29.41
10688;BME280;5392;42.688;23.298;2022-07-29T13:37:33;57248.53;;;-144.48;29.54
10688;BME280;5392;42.688;23.298;2022-07-29T13:40:02;57210.97;;;-144.48;29.57
10688;BME280;5392;42.688;23.298;2022-07-29T13:42:30;57210.97;;;-144.48;29.17
10688;BME280;5392;42.688;23.298;2022-07-29T13:44:58;57210.97;;;-144.48;28.83
10688;BME280;5392;42.688;23.298;2022-07-29T13:47:25;57233.91;;;-144.48;28.76
10688;BME280;5392;42.688;23.298;2022-07-29T13:50:01;57217.22;;;-144.48;28.50